KDSV/DSV METAR and TAF weather

Enter ICAO airport designator
Station Type Date Time Source
KDSV METAR 2019/08/24 19:54 UTC NOAA

KDSV 241954Z AUTO 34004KT 10SM OVC044 19/11 A3027 RMK AO2 SLP258 T01890111


Station Type Date Time Source
KDSV Decoded METAR 2019/08/24 19:54 UTC NOAA

Station name not available
Aug 24, 2019 - 03:54 PM EDT / 2019.08.24 1954 UTC
Wind: from the NNW (340 degrees) at 5 MPH (4 KT):0
Visibility: 10 mile(s):0
Sky conditions: overcast
Temperature: 66.0 F (18.9 C)
Dew Point: 52.0 F (11.1 C)
Relative Humidity: 60%
Pressure (altimeter): 30.27 in. Hg (1025 hPa)
ob: KDSV 241954Z AUTO 34004KT 10SM OVC044 19/11 A3027 RMK AO2 SLP258 T01890111
cycle: 20

Station Type Date Time Source
KDSV TAF UTC NOAA

Error!

Example: see airport list